createdAt,value
2023-04-03T00:03:18.884Z,0.00
2023-04-03T00:08:17.038Z,0.00
2023-04-03T00:13:18.163Z,0.00
2023-04-03T00:18:19.368Z,0.00
2023-04-03T00:23:20.551Z,0.00
2023-04-03T00:28:22.713Z,0.00
2023-04-03T00:33:21.803Z,0.00
2023-04-03T00:38:23.057Z,0.00
2023-04-03T00:43:24.121Z,0.00
2023-04-03T00:48:25.213Z,0.00
2023-04-03T00:53:26.284Z,0.00
2023-04-03T00:58:27.438Z,0.00
2023-04-03T01:03:28.623Z,0.00
2023-04-03T01:08:29.819Z,0.00
2023-04-03T01:13:31.024Z,0.00
2023-04-03T01:18:32.097Z,0.00
2023-04-03T01:23:34.281Z,0.00
2023-04-03T01:28:33.312Z,0.00
2023-04-03T01:33:34.478Z,0.00
2023-04-03T01:38:35.542Z,0.00
2023-04-03T01:43:36.657Z,0.00
2023-04-03T01:48:38.840Z,0.00
2023-04-03T01:53:38.013Z,0.00
2023-04-03T01:58:39.273Z,0.00
2023-04-03T02:03:40.419Z,0.00
2023-04-03T02:08:42.581Z,0.00
2023-04-03T02:13:41.778Z,0.00
2023-04-03T02:18:42.942Z,0.00
2023-04-03T02:23:44.134Z,0.00
2023-04-03T02:28:46.339Z,0.00
2023-04-03T02:33:45.544Z,0.00
2023-04-03T02:38:46.729Z,0.00
2023-04-03T02:43:47.818Z,0.00
2023-04-03T02:48:49.007Z,0.00
2023-04-03T02:53:50.174Z,0.00
2023-04-03T02:58:51.328Z,0.00
2023-04-03T03:03:52.511Z,0.00
2023-04-03T03:08:53.632Z,0.00
2023-04-03T03:13:53.729Z,0.00
2023-04-03T03:18:54.883Z,0.00
2023-04-03T03:23:56.074Z,0.00
2023-04-03T03:28:57.159Z,0.00
2023-04-03T03:34:00.207Z,0.00
2023-04-03T03:38:59.344Z,0.00
2023-04-03T03:43:59.512Z,0.00
2023-04-03T03:49:01.565Z,0.00
2023-04-03T03:54:02.670Z,0.00
2023-04-03T03:59:02.742Z,0.00
2023-04-03T04:04:01.993Z,0.00
2023-04-03T04:09:04.144Z,0.00
2023-04-03T04:14:03.376Z,0.00
2023-04-03T04:19:07.499Z,0.00
2023-04-03T04:24:05.509Z,0.00
2023-04-03T04:29:07.666Z,0.00
2023-04-03T04:34:06.817Z,0.00
2023-04-03T04:39:07.996Z,0.00
2023-04-03T04:44:10.069Z,0.00
2023-04-03T04:49:09.278Z,0.00
2023-04-03T04:54:10.584Z,0.00
2023-04-03T04:59:11.628Z,0.00
2023-04-03T05:04:12.800Z,5.62
2023-04-03T05:09:13.911Z,5.62
2023-04-03T05:14:16.026Z,11.25
2023-04-03T05:19:15.150Z,16.88
2023-04-03T05:24:16.229Z,22.50
2023-04-03T05:29:17.452Z,22.50
2023-04-03T05:34:18.606Z,22.50
2023-04-03T05:39:19.857Z,28.12
2023-04-03T05:44:21.045Z,28.12
2023-04-03T05:49:23.151Z,33.75
2023-04-03T05:54:22.344Z,33.75
2023-04-03T05:59:22.642Z,45.00
2023-04-03T06:04:23.795Z,50.62
2023-04-03T06:09:24.018Z,45.00
2023-04-03T06:14:26.063Z,56.25
2023-04-03T06:19:26.173Z,56.25
2023-04-03T06:24:25.384Z,61.88
2023-04-03T06:29:26.577Z,61.88
2023-04-03T06:34:27.738Z,73.12
2023-04-03T06:39:29.969Z,84.38
2023-04-03T06:44:30.044Z,90.00
2023-04-03T06:49:29.204Z,95.62
2023-04-03T06:54:30.416Z,101.25
2023-04-03T06:59:31.501Z,118.12
2023-04-03T07:04:33.617Z,163.12
2023-04-03T07:09:32.848Z,174.38
2023-04-03T07:14:33.928Z,157.50
2023-04-03T07:19:35.160Z,146.25
2023-04-03T07:24:36.207Z,146.25
2023-04-03T07:29:38.304Z,163.12
2023-04-03T07:34:37.580Z,180.00
2023-04-03T07:39:39.659Z,151.88
2023-04-03T07:44:38.875Z,135.00
2023-04-03T07:49:40.266Z,129.38
2023-04-03T07:54:41.359Z,140.62
2023-04-03T07:59:42.445Z,129.38
2023-04-03T08:04:43.550Z,129.38
2023-04-03T08:09:44.619Z,129.38
2023-04-03T08:14:45.833Z,135.00
2023-04-03T08:19:46.930Z,123.75
2023-04-03T08:24:58.535Z,129.38
2023-04-03T08:29:48.080Z,135.00
2023-04-03T08:34:49.346Z,129.38
2023-04-03T08:39:50.519Z,135.00
2023-04-03T08:44:51.648Z,146.25
2023-04-03T08:49:52.836Z,157.50
2023-04-03T08:54:53.935Z,151.88
2023-04-03T08:59:56.010Z,140.62
2023-04-03T09:04:55.095Z,146.25
2023-04-03T09:09:56.347Z,157.50
2023-04-03T09:14:58.409Z,185.62
2023-04-03T09:19:57.478Z,185.62
2023-04-03T09:24:58.722Z,163.12
2023-04-03T09:29:59.954Z,140.62
2023-04-03T09:35:03.949Z,129.38
2023-04-03T09:40:01.072Z,118.12
2023-04-03T09:45:02.337Z,118.12
2023-04-03T09:50:04.404Z,135.00
2023-04-03T09:55:04.472Z,157.50
2023-04-03T10:00:03.686Z,174.38
2023-04-03T10:10:05.844Z,163.12
2023-04-03T10:15:04.916Z,180.00
2023-04-03T10:20:05.994Z,174.38
2023-04-03T10:25:08.051Z,174.38
2023-04-03T10:30:07.210Z,163.12
2023-04-03T10:35:09.284Z,174.38
2023-04-03T10:40:08.395Z,185.62
2023-04-03T10:45:10.473Z,180.00
2023-04-03T10:50:09.647Z,196.88
2023-04-03T10:55:10.721Z,213.75
2023-04-03T11:00:11.777Z,219.38
2023-04-03T11:05:13.911Z,213.75
2023-04-03T11:10:14.768Z,219.38
2023-04-03T11:15:12.994Z,275.62
2023-04-03T11:20:15.083Z,348.75
2023-04-03T11:25:14.192Z,433.12
2023-04-03T11:30:16.259Z,489.38
2023-04-03T11:35:16.346Z,478.12
2023-04-03T11:40:15.426Z,478.12
2023-04-03T11:45:20.565Z,500.62
2023-04-03T11:50:17.595Z,495.00
2023-04-03T11:55:19.668Z,489.38
2023-04-03T12:00:18.743Z,478.12
2023-04-03T12:05:19.913Z,444.38
2023-04-03T12:10:31.849Z,433.12
2023-04-03T12:15:21.954Z,483.75
2023-04-03T12:20:23.992Z,534.38
2023-04-03T12:25:23.106Z,585.00
2023-04-03T12:30:25.190Z,562.50
2023-04-03T12:35:24.249Z,590.62
2023-04-03T12:40:25.313Z,545.62
2023-04-03T12:45:26.525Z,489.38
2023-04-03T12:50:27.582Z,438.75
2023-04-03T12:55:28.708Z,360.00
2023-04-03T13:00:30.821Z,303.75
2023-04-03T13:05:29.916Z,230.62
2023-04-03T13:10:30.979Z,202.50
2023-04-03T13:15:32.064Z,202.50
2023-04-03T13:20:34.141Z,236.25
2023-04-03T13:25:33.283Z,253.12
2023-04-03T13:30:34.417Z,270.00
2023-04-03T13:35:35.549Z,270.00
